Sebastopol, Texas
Current Conditions -  °F | °C
As of 7:15 AM on Thursday 23 Oct 2014 (Local Time) from KDKR Reporting Station
Clear Clear  
Wind Chill: 61°   Ceiling: Unl
Heat Index: 61°   Visibility: 10mi
Dew Point: 57°   Wind: 3mph
Humidity: 88%   Direction: 20°NNE
Pressure: 30.15"   Gusts: NA
Location:  30.9905°N, 95.3368°W
Report Text: KDKR 231215Z AUTO 02003KT 10SM CLR 16/14 A3015 RMK AO2
Loading
Personal Weather Stations






























Interactive Weather Map New forecast layout! Learn more

10-Day Weather Forecast

Advertisements
Track Severe Weather on mobile